Time,TemperatureF,DewpointF,PressureIn,WindDirection,WindDirectionDegrees,WindSpeedMPH,WindSpeedGustMPH,Humidity,HourlyPrecipIn,Conditions,Clouds,dailyrainin,SoftwareType,DateUTC
2013-03-27 00:00:00,33.1,28.4,30.24,West,270,1.3,1.8,83,0.00,,,0.04,WUHU216HW,2013-03-27 04:00:00,
2013-03-27 00:05:00,33.1,28.4,30.24,West,270,1.6,2.2,83,0.00,,,0.00,WUHU216HW,2013-03-27 04:05:00,
2013-03-27 00:10:00,32.9,28.4,30.24,West,270,1.8,2.2,83,0.00,,,0.00,WUHU216HW,2013-03-27 04:10:00,
2013-03-27 00:15:00,33.1,28.4,30.24,West,270,1.1,2.0,83,0.00,,,0.00,WUHU216HW,2013-03-27 04:15:00,
2013-03-27 00:20:00,33.1,28.4,30.24,WSW,248,0.9,2.0,83,0.00,,,0.00,WUHU216HW,2013-03-27 04:20:00,
2013-03-27 00:25:00,33.1,28.4,30.24,West,270,1.6,1.6,83,0.00,,,0.00,WUHU216HW,2013-03-27 04:25:00,
2013-03-27 00:30:00,33.1,28.4,30.24,West,270,1.6,1.6,83,0.00,,,0.00,WUHU216HW,2013-03-27 04:30:00,
2013-03-27 00:35:00,32.9,28.4,30.25,West,270,0.7,1.6,83,0.00,,,0.00,WUHU216HW,2013-03-27 04:35:00,
2013-03-27 00:40:00,32.9,28.4,30.25,West,270,0.7,1.6,83,0.00,,,0.00,WUHU216HW,2013-03-27 04:40:00,
2013-03-27 00:45:00,32.9,28.4,30.25,West,270,1.8,2.0,83,0.00,,,0.00,WUHU216HW,2013-03-27 04:45:00,
2013-03-27 00:50:00,32.9,28.4,30.25,West,270,1.1,2.0,83,0.00,,,0.00,WUHU216HW,2013-03-27 04:50:00,
2013-03-27 00:55:00,32.9,28.4,30.25,West,270,1.1,1.8,83,0.00,,,0.00,WUHU216HW,2013-03-27 04:55:00,
2013-03-27 01:00:00,32.9,28.4,30.24,West,270,0.9,1.3,83,0.00,,,0.00,WUHU216HW,2013-03-27 05:00:00,
2013-03-27 01:05:00,32.9,28.4,30.24,West,270,0.2,1.3,83,0.00,,,0.00,WUHU216HW,2013-03-27 05:05:00,
2013-03-27 01:10:00,32.9,28.4,30.25,West,270,1.6,1.6,83,0.00,,,0.00,WUHU216HW,2013-03-27 05:10:00,
2013-03-27 01:15:00,32.9,28.4,30.24,WSW,248,0.9,1.6,83,0.00,,,0.00,WUHU216HW,2013-03-27 05:15:00,
2013-03-27 01:20:00,32.9,28.4,30.24,West,270,1.6,1.6,83,0.00,,,0.00,WUHU216HW,2013-03-27 05:20:00,
2013-03-27 01:25:00,33.1,28.4,30.25,West,270,0.7,1.6,83,0.00,,,0.00,WUHU216HW,2013-03-27 05:25:00,
2013-03-27 01:30:00,32.9,28.4,30.24,West,270,0.4,1.6,83,0.00,,,0.00,WUHU216HW,2013-03-27 05:30:00,
2013-03-27 01:35:00,32.9,28.4,30.24,West,270,0.0,1.3,83,0.00,,,0.00,WUHU216HW,2013-03-27 05:35:00,
2013-03-27 01:40:00,32.8,27.9,30.25,West,270,1.1,1.1,82,0.00,,,0.00,WUHU216HW,2013-03-27 05:40:00,
2013-03-27 01:45:00,32.8,27.9,30.25,West,270,0.7,1.1,82,0.00,,,0.00,WUHU216HW,2013-03-27 05:45:00,
2013-03-27 01:50:00,32.8,27.9,30.25,WSW,248,1.6,1.8,82,0.00,,,0.00,WUHU216HW,2013-03-27 05:50:00,
2013-03-27 01:55:00,32.6,27.7,30.25,West,270,1.1,1.8,82,0.00,,,0.00,WUHU216HW,2013-03-27 05:55:00,
2013-03-27 02:00:00,32.6,27.7,30.24,WSW,248,0.9,1.6,82,0.00,,,0.00,WUHU216HW,2013-03-27 06:00:00,
2013-03-27 02:05:00,32.6,27.7,30.24,WSW,248,1.1,1.1,82,0.00,,,0.00,WUHU216HW,2013-03-27 06:05:00,
2013-03-27 02:10:00,32.4,27.5,30.24,West,270,0.4,1.3,82,0.00,,,0.00,WUHU216HW,2013-03-27 06:10:00,
2013-03-27 02:15:00,32.4,27.5,30.24,West,270,0.9,1.3,82,0.00,,,0.00,WUHU216HW,2013-03-27 06:15:00,
2013-03-27 02:20:00,32.4,27.5,30.24,WNW,293,0.7,1.6,82,0.00,,,0.00,WUHU216HW,2013-03-27 06:20:00,
2013-03-27 02:25:00,32.4,27.5,30.24,WNW,293,0.7,1.6,82,0.00,,,0.00,WUHU216HW,2013-03-27 06:25:00,
2013-03-27 02:30:00,32.4,27.8,30.24,WNW,293,0.0,1.1,83,0.00,,,0.00,WUHU216HW,2013-03-27 06:30:00,
2013-03-27 02:35:00,32.4,27.8,30.24,West,270,1.1,1.1,83,0.00,,,0.00,WUHU216HW,2013-03-27 06:35:00,
2013-03-27 02:40:00,32.4,27.8,30.24,West,270,1.1,1.3,83,0.00,,,0.00,WUHU216HW,2013-03-27 06:40:00,
2013-03-27 02:45:00,32.4,27.8,30.24,West,270,1.1,1.3,83,0.00,,,0.00,WUHU216HW,2013-03-27 06:45:00,
2013-03-27 02:50:00,32.2,27.6,30.24,West,270,0.9,1.3,83,0.00,,,0.00,WUHU216HW,2013-03-27 06:50:00,
2013-03-27 02:55:00,32.2,27.6,30.24,WNW,293,1.8,2.0,83,0.00,,,0.00,WUHU216HW,2013-03-27 06:55:00,
2013-03-27 03:00:00,32.4,27.8,30.24,West,270,1.1,2.0,83,0.00,,,0.00,WUHU216HW,2013-03-27 07:00:00,
2013-03-27 03:05:00,32.4,27.8,30.23,West,270,1.1,1.8,83,0.00,,,0.00,WUHU216HW,2013-03-27 07:05:00,
2013-03-27 03:10:00,32.4,27.5,30.23,West,270,1.1,1.8,82,0.00,,,0.00,WUHU216HW,2013-03-27 07:10:00,
2013-03-27 03:15:00,32.4,27.5,30.23,WNW,293,0.9,1.8,82,0.00,,,0.00,WUHU216HW,2013-03-27 07:15:00,
2013-03-27 03:20:00,32.4,27.5,30.23,West,270,0.4,1.8,82,0.00,,,0.00,WUHU216HW,2013-03-27 07:20:00,
2013-03-27 03:25:00,32.4,27.5,30.23,WSW,248,0.4,1.8,82,0.00,,,0.00,WUHU216HW,2013-03-27 07:25:00,
2013-03-27 03:30:00,32.4,27.5,30.23,West,270,0.7,1.8,82,0.00,,,0.00,WUHU216HW,2013-03-27 07:30:00,
2013-03-27 03:35:00,32.4,27.5,30.23,West,270,0.7,1.3,82,0.00,,,0.00,WUHU216HW,2013-03-27 07:35:00,
2013-03-27 03:40:00,32.4,27.5,30.23,West,270,1.1,1.6,82,0.00,,,0.00,WUHU216HW,2013-03-27 07:40:00,
2013-03-27 03:45:00,32.6,27.7,30.23,West,270,1.6,2.2,82,0.00,,,0.00,WUHU216HW,2013-03-27 07:45:00,
2013-03-27 03:50:00,32.6,27.7,30.23,WSW,248,0.7,2.2,82,0.00,,,0.00,WUHU216HW,2013-03-27 07:50:00,
2013-03-27 03:55:00,32.6,27.7,30.23,WNW,293,1.3,1.8,82,0.00,,,0.00,WUHU216HW,2013-03-27 07:55:00,
2013-03-27 04:00:00,32.6,27.7,30.23,West,270,1.1,1.6,82,0.00,,,0.00,WUHU216HW,2013-03-27 08:00:00,
2013-03-27 04:05:00,32.6,28.0,30.22,West,270,1.6,2.2,83,0.00,,,0.00,WUHU216HW,2013-03-27 08:05:00,
2013-03-27 04:10:00,32.8,28.2,30.23,West,270,1.6,2.2,83,0.00,,,0.00,WUHU216HW,2013-03-27 08:10:00,
2013-03-27 04:15:00,32.8,28.2,30.23,West,270,1.1,2.5,83,0.00,,,0.00,WUHU216HW,2013-03-27 08:15:00,
2013-03-27 04:20:00,32.8,28.2,30.23,West,270,1.8,2.5,83,0.00,,,0.00,WUHU216HW,2013-03-27 08:20:00,
2013-03-27 04:25:00,32.8,28.2,30.23,WSW,248,1.1,2.0,83,0.00,,,0.00,WUHU216HW,2013-03-27 08:25:00,
2013-03-27 04:30:00,32.8,28.2,30.23,West,270,0.4,2.0,83,0.00,,,0.00,WUHU216HW,2013-03-27 08:30:00,
2013-03-27 04:35:00,32.8,28.2,30.23,West,270,0.9,2.0,83,0.00,,,0.00,WUHU216HW,2013-03-27 08:35:00,
2013-03-27 04:40:00,32.8,28.2,30.24,West,270,1.8,2.0,83,0.00,,,0.00,WUHU216HW,2013-03-27 08:40:00,
2013-03-27 04:45:00,32.8,28.2,30.24,West,270,1.1,2.2,83,0.00,,,0.00,WUHU216HW,2013-03-27 08:45:00,
2013-03-27 04:50:00,32.8,28.2,30.23,West,270,0.7,2.2,83,0.00,,,0.00,WUHU216HW,2013-03-27 08:50:00,
2013-03-27 04:55:00,32.8,28.2,30.22,West,270,0.0,1.8,83,0.00,,,0.00,WUHU216HW,2013-03-27 08:55:00,
2013-03-27 05:00:00,32.9,28.4,30.23,West,270,1.6,1.6,83,0.00,,,0.00,WUHU216HW,2013-03-27 09:00:00,
2013-03-27 05:05:00,32.8,28.2,30.23,West,270,0.9,1.8,83,0.00,,,0.00,WUHU216HW,2013-03-27 09:05:00,
2013-03-27 05:10:00,32.9,28.4,30.23,West,270,1.8,1.8,83,0.00,,,0.00,WUHU216HW,2013-03-27 09:10:00,
2013-03-27 05:15:00,32.8,28.2,30.23,West,270,1.1,2.0,83,0.00,,,0.00,WUHU216HW,2013-03-27 09:15:00,
2013-03-27 05:20:00,32.8,28.2,30.23,West,270,0.7,2.0,83,0.00,,,0.00,WUHU216HW,2013-03-27 09:20:00,
2013-03-27 05:25:00,32.9,28.4,30.24,WNW,293,0.4,2.0,83,0.00,,,0.00,WUHU216HW,2013-03-27 09:25:00,
2013-03-27 05:30:00,32.8,28.2,30.24,WNW,293,0.4,1.1,83,0.00,,,0.00,WUHU216HW,2013-03-27 09:30:00,
2013-03-27 05:35:00,32.8,27.9,30.24,WNW,293,0.0,1.3,82,0.00,,,0.00,WUHU216HW,2013-03-27 09:35:00,
2013-03-27 05:40:00,32.9,28.0,30.24,West,270,1.1,1.3,82,0.00,,,0.00,WUHU216HW,2013-03-27 09:40:00,
2013-03-27 05:45:00,32.9,28.0,30.24,WSW,248,0.4,1.8,82,0.00,,,0.00,WUHU216HW,2013-03-27 09:45:00,
2013-03-27 05:50:00,32.8,27.9,30.24,WNW,293,0.9,1.8,82,0.00,,,0.00,WUHU216HW,2013-03-27 09:50:00,
2013-03-27 05:55:00,32.8,27.9,30.24,WNW,293,1.1,1.6,82,0.00,,,0.00,WUHU216HW,2013-03-27 09:55:00,
2013-03-27 06:00:00,32.9,28.0,30.24,WNW,293,0.9,1.6,82,0.00,,,0.00,WUHU216HW,2013-03-27 10:00:00,
2013-03-27 06:05:00,32.8,27.5,30.24,West,270,1.1,1.6,81,0.00,,,0.00,WUHU216HW,2013-03-27 10:05:00,
2013-03-27 06:10:00,32.8,27.5,30.24,West,270,1.1,1.8,81,0.00,,,0.00,WUHU216HW,2013-03-27 10:10:00,
2013-03-27 06:15:00,32.8,27.5,30.25,WNW,293,1.1,2.2,81,0.00,,,0.00,WUHU216HW,2013-03-27 10:15:00,
2013-03-27 06:20:00,32.8,27.5,30.25,West,270,1.3,2.2,81,0.00,,,0.00,WUHU216HW,2013-03-27 10:20:00,
2013-03-27 06:25:00,32.8,27.5,30.25,WNW,293,1.6,2.0,81,0.00,,,0.00,WUHU216HW,2013-03-27 10:25:00,
2013-03-27 06:30:00,32.8,27.5,30.25,WNW,293,1.1,2.0,81,0.00,,,0.00,WUHU216HW,2013-03-27 10:30:00,
2013-03-27 06:35:00,32.9,27.7,30.25,WNW,293,1.6,1.8,81,0.00,,,0.00,WUHU216HW,2013-03-27 10:35:00,
2013-03-27 06:40:00,32.9,27.7,30.25,WNW,293,0.7,1.6,81,0.00,,,0.00,WUHU216HW,2013-03-27 10:40:00,
2013-03-27 06:45:00,32.8,27.5,30.26,West,270,0.9,1.6,81,0.00,,,0.00,WUHU216HW,2013-03-27 10:45:00,
2013-03-27 06:50:00,32.8,27.5,30.26,WNW,293,0.4,1.1,81,0.00,,,0.00,WUHU216HW,2013-03-27 10:50:00,
2013-03-27 06:55:00,32.8,27.5,30.25,WNW,293,0.0,1.1,81,0.00,,,0.00,WUHU216HW,2013-03-27 10:55:00,
2013-03-27 07:00:00,32.8,27.5,30.26,WNW,293,0.4,0.4,81,0.00,,,0.00,WUHU216HW,2013-03-27 11:00:00,
2013-03-27 07:05:00,32.8,27.5,30.26,West,270,0.9,1.1,81,0.00,,,0.00,WUHU216HW,2013-03-27 11:05:00,
2013-03-27 07:10:00,32.8,27.5,30.26,WNW,293,1.1,1.1,81,0.00,,,0.00,WUHU216HW,2013-03-27 11:10:00,
2013-03-27 07:15:00,32.8,27.5,30.26,West,270,0.9,1.3,81,0.00,,,0.00,WUHU216HW,2013-03-27 11:15:00,
2013-03-27 07:20:00,32.8,27.5,30.27,WNW,293,0.7,1.3,81,0.00,,,0.00,WUHU216HW,2013-03-27 11:20:00,
2013-03-27 07:25:00,32.8,27.5,30.26,WNW,293,0.7,1.1,81,0.00,,,0.00,WUHU216HW,2013-03-27 11:25:00,
2013-03-27 07:30:00,32.8,27.5,30.26,West,270,0.9,0.9,81,0.00,,,0.00,WUHU216HW,2013-03-27 11:30:00,
2013-03-27 07:35:00,32.8,27.9,30.27,WNW,293,0.2,0.9,82,0.00,,,0.00,WUHU216HW,2013-03-27 11:35:00,
2013-03-27 07:40:00,32.8,27.9,30.27,WNW,293,0.7,1.1,82,0.00,,,0.00,WUHU216HW,2013-03-27 11:40:00,
2013-03-27 07:45:00,32.8,27.9,30.27,West,270,1.1,1.3,82,0.00,,,0.00,WUHU216HW,2013-03-27 11:45:00,
2013-03-27 07:50:00,32.8,27.9,30.27,West,270,1.1,1.3,82,0.00,,,0.00,WUHU216HW,2013-03-27 11:50:00,
2013-03-27 07:55:00,32.8,27.9,30.27,West,270,1.1,1.1,82,0.00,,,0.00,WUHU216HW,2013-03-27 11:55:00,
2013-03-27 08:00:00,32.8,27.9,30.27,WNW,293,0.7,1.8,82,0.00,,,0.00,WUHU216HW,2013-03-27 12:00:00,
2013-03-27 08:05:00,32.8,27.9,30.27,WNW,293,0.2,1.8,82,0.00,,,0.00,WUHU216HW,2013-03-27 12:05:00,
2013-03-27 08:10:00,32.8,27.9,30.27,WNW,293,1.1,1.1,82,0.00,,,0.00,WUHU216HW,2013-03-27 12:10:00,
2013-03-27 08:15:00,32.9,28.0,30.28,West,270,0.9,1.1,82,0.00,,,0.00,WUHU216HW,2013-03-27 12:15:00,
2013-03-27 08:20:00,33.1,27.9,30.28,WNW,293,0.9,1.8,81,0.00,,,0.00,WUHU216HW,2013-03-27 12:20:00,
2013-03-27 08:25:00,33.1,27.9,30.28,WNW,293,1.1,1.8,81,0.00,,,0.00,WUHU216HW,2013-03-27 12:25:00,
2013-03-27 08:30:00,33.3,28.1,30.28,WNW,293,0.4,1.8,81,0.00,,,0.00,WUHU216HW,2013-03-27 12:30:00,
2013-03-27 08:35:00,33.3,28.4,30.28,West,270,0.7,1.8,82,0.00,,,0.00,WUHU216HW,2013-03-27 12:35:00,
2013-03-27 08:40:00,33.5,28.3,30.29,West,270,0.9,1.8,81,0.00,,,0.00,WUHU216HW,2013-03-27 12:40:00,
2013-03-27 08:45:00,33.5,28.3,30.28,NW,315,1.3,1.3,81,0.00,,,0.00,WUHU216HW,2013-03-27 12:45:00,
2013-03-27 08:50:00,33.7,28.4,30.29,SW,225,0.4,1.3,81,0.00,,,0.00,WUHU216HW,2013-03-27 12:50:00,
2013-03-27 08:55:00,33.8,28.3,30.29,West,270,1.1,1.8,80,0.00,,,0.00,WUHU216HW,2013-03-27 12:55:00,
2013-03-27 09:00:00,33.8,28.3,30.29,WNW,293,1.8,2.0,80,0.00,,,0.00,WUHU216HW,2013-03-27 13:00:00,
2013-03-27 09:05:00,34.0,28.1,30.29,WNW,293,0.9,2.0,79,0.00,,,0.00,WUHU216HW,2013-03-27 13:05:00,
2013-03-27 09:10:00,33.8,27.9,30.29,WNW,293,1.3,2.0,79,0.00,,,0.00,WUHU216HW,2013-03-27 13:10:00,
2013-03-27 09:15:00,34.0,28.1,30.29,WNW,293,1.1,2.0,79,0.00,,,0.00,WUHU216HW,2013-03-27 13:15:00,
2013-03-27 09:20:00,34.0,28.1,30.30,NW,315,1.8,2.2,79,0.00,,,0.00,WUHU216HW,2013-03-27 13:20:00,
2013-03-27 09:25:00,34.2,28.0,30.30,NW,315,1.8,2.7,78,0.00,,,0.00,WUHU216HW,2013-03-27 13:25:00,
2013-03-27 09:30:00,34.2,28.0,30.30,North,0,0.9,2.7,78,0.00,,,0.00,WUHU216HW,2013-03-27 13:30:00,
2013-03-27 09:35:00,34.0,27.8,30.30,WNW,293,0.9,2.5,78,0.00,,,0.00,WUHU216HW,2013-03-27 13:35:00,
2013-03-27 09:40:00,34.0,27.8,30.30,NW,315,0.2,1.8,78,0.00,,,0.00,WUHU216HW,2013-03-27 13:40:00,
2013-03-27 09:45:00,34.2,27.6,30.30,WNW,293,2.5,2.5,77,0.00,,,0.00,WUHU216HW,2013-03-27 13:45:00,
2013-03-27 09:50:00,34.2,27.6,30.30,WNW,293,1.8,2.5,77,0.00,,,0.00,WUHU216HW,2013-03-27 13:50:00,
2013-03-27 09:55:00,34.2,27.6,30.30,WNW,293,1.8,3.1,77,0.00,,,0.00,WUHU216HW,2013-03-27 13:55:00,
2013-03-27 10:00:00,34.2,27.4,30.30,WNW,293,1.8,3.1,76,0.00,,,0.00,WUHU216HW,2013-03-27 14:00:00,
2013-03-27 10:05:00,34.2,27.4,30.30,WSW,248,1.8,2.9,76,0.00,,,0.00,WUHU216HW,2013-03-27 14:05:00,
2013-03-27 10:10:00,34.0,27.2,30.30,WSW,248,1.8,2.9,76,0.00,,,0.00,WUHU216HW,2013-03-27 14:10:00,
2013-03-27 10:15:00,34.2,27.6,30.30,NW,315,1.8,2.9,77,0.00,,,0.00,WUHU216HW,2013-03-27 14:15:00,
2013-03-27 10:20:00,34.2,27.4,30.30,West,270,2.5,2.5,76,0.00,,,0.00,WUHU216HW,2013-03-27 14:20:00,
2013-03-27 10:25:00,34.6,27.7,30.30,NW,315,2.5,3.1,76,0.00,,,0.00,WUHU216HW,2013-03-27 14:25:00,
2013-03-27 10:30:00,34.9,27.7,30.29,West,270,2.5,3.1,75,0.00,,,0.00,WUHU216HW,2013-03-27 14:30:00,
2013-03-27 10:35:00,35.1,27.9,30.29,NNW,338,0.7,2.7,75,0.00,,,0.00,WUHU216HW,2013-03-27 14:35:00,
2013-03-27 10:41:00,35.3,28.1,30.30,NW,315,1.8,3.1,75,0.00,,,0.00,WUHU216HW,2013-03-27 14:41:00,
2013-03-27 10:46:00,35.3,28.5,30.30,WNW,293,2.0,3.1,76,0.00,,,0.00,WUHU216HW,2013-03-27 14:46:00,
2013-03-27 10:51:00,35.3,28.1,30.30,WNW,293,1.8,2.5,75,0.00,,,0.00,WUHU216HW,2013-03-27 14:51:00,
2013-03-27 10:56:00,34.9,28.1,30.30,WNW,293,2.0,3.4,76,0.00,,,0.00,WUHU216HW,2013-03-27 14:56:00,
2013-03-27 11:01:00,34.9,28.1,30.30,West,270,1.3,3.4,76,0.00,,,0.00,WUHU216HW,2013-03-27 15:01:00,
2013-03-27 11:06:00,34.7,27.5,30.30,West,270,3.1,3.6,75,0.00,,,0.00,WUHU216HW,2013-03-27 15:06:00,
2013-03-27 11:11:00,34.6,27.4,30.30,West,270,3.6,3.6,75,0.00,,,0.00,WUHU216HW,2013-03-27 15:11:00,
2013-03-27 11:16:00,34.6,27.4,30.30,West,270,1.8,3.6,75,0.00,,,0.00,WUHU216HW,2013-03-27 15:16:00,
2013-03-27 11:21:00,34.7,26.9,30.30,West,270,2.7,3.4,73,0.00,,,0.00,WUHU216HW,2013-03-27 15:21:00,
2013-03-27 11:26:00,34.9,27.1,30.30,WSW,248,2.5,3.4,73,0.00,,,0.00,WUHU216HW,2013-03-27 15:26:00,
2013-03-27 11:30:00,35.1,27.5,30.30,West,270,1.3,3.1,74,0.00,,,0.00,WUHU216HW,2013-03-27 15:30:00,
2013-03-27 11:35:00,35.6,28.1,30.30,WNW,293,2.5,3.1,74,0.00,,,0.00,WUHU216HW,2013-03-27 15:35:00,
2013-03-27 11:40:00,35.8,28.0,30.31,West,270,3.4,3.4,73,0.00,,,0.00,WUHU216HW,2013-03-27 15:40:00,
2013-03-27 11:45:00,35.8,28.0,30.30,West,270,1.6,3.4,73,0.00,,,0.00,WUHU216HW,2013-03-27 15:45:00,
2013-03-27 11:50:00,35.8,27.6,30.31,North,0,1.6,2.9,72,0.00,,,0.00,WUHU216HW,2013-03-27 15:50:00,
2013-03-27 11:55:00,35.8,28.0,30.30,NW,315,0.4,2.9,73,0.00,,,0.00,WUHU216HW,2013-03-27 15:55:00,
2013-03-27 12:00:00,36.0,28.2,30.31,North,0,1.1,2.7,73,0.00,,,0.00,WUHU216HW,2013-03-27 16:00:00,
2013-03-27 12:05:00,36.4,27.9,30.31,WNW,293,1.8,2.7,71,0.00,,,0.00,WUHU216HW,2013-03-27 16:05:00,
2013-03-27 12:10:00,36.4,27.2,30.31,West,270,2.5,2.9,69,0.00,,,0.00,WUHU216HW,2013-03-27 16:10:00,
2013-03-27 12:15:00,36.4,27.9,30.31,NW,315,1.8,2.9,71,0.00,,,0.00,WUHU216HW,2013-03-27 16:15:00,
2013-03-27 12:20:00,36.5,28.1,30.31,NNW,338,1.8,2.7,71,0.00,,,0.00,WUHU216HW,2013-03-27 16:20:00,
2013-03-27 12:25:00,36.5,27.7,30.31,WNW,293,2.5,3.4,70,0.00,,,0.00,WUHU216HW,2013-03-27 16:25:00,
2013-03-27 12:30:00,36.5,27.4,30.31,WNW,293,2.2,3.4,69,0.00,,,0.00,WUHU216HW,2013-03-27 16:30:00,
2013-03-27 12:35:00,36.7,27.9,30.31,WNW,293,0.9,3.4,70,0.00,,,0.00,WUHU216HW,2013-03-27 16:35:00,
2013-03-27 12:40:00,36.9,28.5,30.31,NW,315,1.8,3.4,71,0.00,,,0.00,WUHU216HW,2013-03-27 16:40:00,
2013-03-27 12:45:00,37.3,28.4,30.31,WNW,293,2.2,2.7,70,0.00,,,0.00,WUHU216HW,2013-03-27 16:45:00,
2013-03-27 12:50:00,37.8,29.0,30.31,West,270,1.6,3.1,70,0.00,,,0.00,WUHU216HW,2013-03-27 16:50:00,
2013-03-27 12:55:00,38.2,28.9,30.31,West,270,1.8,3.1,69,0.00,,,0.00,WUHU216HW,2013-03-27 16:55:00,
2013-03-27 13:00:00,38.3,29.1,30.31,North,0,1.1,2.7,69,0.00,,,0.00,WUHU216HW,2013-03-27 17:00:00,
2013-03-27 13:05:00,38.5,27.7,30.31,WSW,248,2.9,4.0,65,0.00,,,0.00,WUHU216HW,2013-03-27 17:05:00,
2013-03-27 13:10:00,38.5,28.4,30.31,NW,315,1.8,4.0,67,0.00,,,0.00,WUHU216HW,2013-03-27 17:10:00,
2013-03-27 13:15:00,38.7,28.6,30.30,North,0,1.8,3.8,67,0.00,,,0.00,WUHU216HW,2013-03-27 17:15:00,
2013-03-27 13:20:00,38.9,28.8,30.30,NNW,338,0.7,3.4,67,0.00,,,0.00,WUHU216HW,2013-03-27 17:20:00,
2013-03-27 13:25:00,39.1,28.5,30.30,North,0,0.9,3.8,66,0.00,,,0.00,WUHU216HW,2013-03-27 17:25:00,
2013-03-27 13:30:00,39.2,28.7,30.30,North,0,0.4,4.5,66,0.00,,,0.00,WUHU216HW,2013-03-27 17:30:00,
2013-03-27 13:35:00,39.2,28.7,30.30,NW,315,2.2,4.5,66,0.00,,,0.00,WUHU216HW,2013-03-27 17:35:00,
2013-03-27 13:40:00,39.2,28.4,30.30,South,180,0.2,3.4,65,0.00,,,0.00,WUHU216HW,2013-03-27 17:40:00,
2013-03-27 13:45:00,39.4,28.5,30.30,WSW,248,3.4,3.4,65,0.00,,,0.00,WUHU216HW,2013-03-27 17:45:00,
2013-03-27 13:50:00,40.0,29.1,30.30,SW,225,2.0,5.4,65,0.00,,,0.00,WUHU216HW,2013-03-27 17:50:00,
2013-03-27 13:55:00,40.0,27.9,30.30,West,270,3.6,5.4,62,0.00,,,0.00,WUHU216HW,2013-03-27 17:55:00,
2013-03-27 14:00:00,40.3,28.7,30.30,West,270,2.5,4.0,63,0.00,,,0.00,WUHU216HW,2013-03-27 18:00:00,
2013-03-27 14:05:00,40.7,28.3,30.29,SW,225,2.5,5.6,61,0.00,,,0.00,WUHU216HW,2013-03-27 18:05:00,
2013-03-27 14:10:00,41.0,28.6,30.29,SW,225,0.7,5.6,61,0.00,,,0.00,WUHU216HW,2013-03-27 18:10:00,
2013-03-27 14:15:00,41.8,29.7,30.29,NNW,338,1.3,5.4,62,0.00,,,0.00,WUHU216HW,2013-03-27 18:15:00,
2013-03-27 14:20:00,42.5,30.3,30.29,NNW,338,1.1,4.7,62,0.00,,,0.00,WUHU216HW,2013-03-27 18:20:00,
2013-03-27 14:26:00,42.3,29.8,30.29,NNW,338,3.6,4.7,61,0.00,,,0.00,WUHU216HW,2013-03-27 18:26:00,
2013-03-27 14:31:00,41.6,29.2,30.28,North,0,0.9,5.4,61,0.00,,,0.00,WUHU216HW,2013-03-27 18:31:00,
2013-03-27 14:36:00,41.8,28.4,30.28,West,270,4.7,5.4,59,0.00,,,0.00,WUHU216HW,2013-03-27 18:36:00,
2013-03-27 14:41:00,42.3,29.4,30.28,North,0,0.9,5.4,60,0.00,,,0.00,WUHU216HW,2013-03-27 18:41:00,
2013-03-27 14:46:00,42.8,29.9,30.28,NNW,338,3.8,5.1,60,0.00,,,0.00,WUHU216HW,2013-03-27 18:46:00,
2013-03-27 14:51:00,42.8,29.9,30.28,WNW,293,1.8,4.0,60,0.00,,,0.00,WUHU216HW,2013-03-27 18:51:00,
2013-03-27 14:56:00,42.1,28.8,30.27,WSW,248,0.7,3.8,59,0.00,,,0.00,WUHU216HW,2013-03-27 18:56:00,
2013-03-27 15:01:00,42.1,28.4,30.27,NW,315,5.4,5.4,58,0.00,,,0.00,WUHU216HW,2013-03-27 19:01:00,
2013-03-27 15:06:00,42.3,29.4,30.27,NNW,338,2.2,5.4,60,0.00,,,0.00,WUHU216HW,2013-03-27 19:06:00,
2013-03-27 15:11:00,42.8,29.9,30.27,WNW,293,0.4,5.4,60,0.00,,,0.00,WUHU216HW,2013-03-27 19:11:00,
2013-03-27 15:16:00,43.2,29.3,30.27,West,270,4.7,4.7,58,0.00,,,0.00,WUHU216HW,2013-03-27 19:16:00,
2013-03-27 15:21:00,43.4,29.1,30.26,North,0,10.5,12.1,57,0.00,,,0.00,WUHU216HW,2013-03-27 19:21:00,
2013-03-27 15:26:00,43.7,29.4,30.26,NNW,338,1.3,12.1,57,0.00,,,0.00,WUHU216HW,2013-03-27 19:26:00,
2013-03-27 15:31:00,43.4,28.7,30.26,NNE,23,0.9,10.5,56,0.00,,,0.00,WUHU216HW,2013-03-27 19:31:00,
2013-03-27 15:36:00,43.6,29.3,30.26,West,270,1.8,3.4,57,0.00,,,0.00,WUHU216HW,2013-03-27 19:36:00,
2013-03-27 15:41:00,44.3,30.4,30.26,North,0,2.7,8.3,58,0.00,,,0.00,WUHU216HW,2013-03-27 19:41:00,
2013-03-27 15:46:00,45.2,30.8,30.26,WNW,293,1.8,8.3,57,0.00,,,0.00,WUHU216HW,2013-03-27 19:46:00,
2013-03-27 15:51:00,45.0,30.3,30.25,WSW,248,1.8,3.6,56,0.00,,,0.00,WUHU216HW,2013-03-27 19:51:00,
2013-03-27 15:56:00,45.0,30.3,30.25,West,270,2.9,4.0,56,0.00,,,0.00,WUHU216HW,2013-03-27 19:56:00,
2013-03-27 16:01:00,45.4,30.5,30.25,South,180,1.1,4.0,56,0.00,,,0.00,WUHU216HW,2013-03-27 20:01:00,
2013-03-27 16:06:00,45.0,28.5,30.25,WSW,248,2.2,5.4,52,0.00,,,0.00,WUHU216HW,2013-03-27 20:06:00,
2013-03-27 16:11:00,44.6,29.0,30.25,NW,315,4.0,5.4,54,0.00,,,0.00,WUHU216HW,2013-03-27 20:11:00,
2013-03-27 16:16:00,45.2,29.9,30.25,NW,315,2.2,4.7,55,0.00,,,0.00,WUHU216HW,2013-03-27 20:16:00,
2013-03-27 16:21:00,45.2,29.9,30.25,NW,315,1.1,4.9,55,0.00,,,0.00,WUHU216HW,2013-03-27 20:21:00,
2013-03-27 16:26:00,45.4,30.1,30.25,WSW,248,2.5,4.9,55,0.00,,,0.00,WUHU216HW,2013-03-27 20:26:00,
2013-03-27 16:32:00,45.5,29.8,30.24,NW,315,5.4,5.4,54,0.00,,,0.00,WUHU216HW,2013-03-27 20:32:00,
2013-03-27 16:37:00,45.2,28.5,30.25,WNW,293,1.6,5.4,52,0.00,,,0.00,WUHU216HW,2013-03-27 20:37:00,
2013-03-27 16:42:00,44.6,28.5,30.25,NW,315,2.7,4.5,53,0.00,,,0.00,WUHU216HW,2013-03-27 20:42:00,
2013-03-27 16:47:00,44.8,28.7,30.25,WSW,248,0.7,7.6,53,0.00,,,0.00,WUHU216HW,2013-03-27 20:47:00,
2013-03-27 16:52:00,45.0,29.4,30.25,NW,315,2.7,7.6,54,0.00,,,0.00,WUHU216HW,2013-03-27 20:52:00,
2013-03-27 16:57:00,45.7,29.5,30.25,NNW,338,4.5,4.5,53,0.00,,,0.00,WUHU216HW,2013-03-27 20:57:00,
2013-03-27 17:02:00,46.3,30.4,30.25,NNW,338,2.2,4.5,54,0.00,,,0.00,WUHU216HW,2013-03-27 21:02:00,
2013-03-27 17:07:00,46.6,29.0,30.25,West,270,3.6,4.5,50,0.00,,,0.00,WUHU216HW,2013-03-27 21:07:00,
2013-03-27 17:12:00,47.3,31.0,30.25,NW,315,3.4,4.9,53,0.00,,,0.00,WUHU216HW,2013-03-27 21:12:00,
2013-03-27 17:17:00,47.5,29.3,30.25,WSW,248,4.0,4.9,49,0.00,,,0.00,WUHU216HW,2013-03-27 21:17:00,
2013-03-27 17:22:00,48.1,31.7,30.25,NNW,338,1.8,4.9,53,0.00,,,0.00,WUHU216HW,2013-03-27 21:22:00,
2013-03-27 17:27:00,49.3,32.0,30.25,NNE,23,1.6,4.9,51,0.00,,,0.00,WUHU216HW,2013-03-27 21:27:00,
2013-03-27 17:32:00,50.6,32.1,30.25,NW,315,4.3,4.9,49,0.00,,,0.00,WUHU216HW,2013-03-27 21:32:00,
2013-03-27 17:37:00,51.1,30.4,30.25,West,270,3.4,5.4,45,0.00,,,0.00,WUHU216HW,2013-03-27 21:37:00,
2013-03-27 17:43:00,51.5,32.4,30.25,North,0,1.3,5.4,48,0.00,,,0.00,WUHU216HW,2013-03-27 21:43:00,
2013-03-27 17:48:00,51.5,31.3,30.25,NNW,338,3.6,5.6,46,0.00,,,0.00,WUHU216HW,2013-03-27 21:48:00,
2013-03-27 17:53:00,50.2,29.1,30.25,NW,315,4.0,5.6,44,0.00,,,0.00,WUHU216HW,2013-03-27 21:53:00,
2013-03-27 17:58:00,50.0,29.4,30.25,WNW,293,3.4,5.1,45,0.00,,,0.00,WUHU216HW,2013-03-27 21:58:00,
2013-03-27 18:03:00,50.8,31.2,30.25,NNW,338,4.5,5.1,47,0.00,,,0.00,WUHU216HW,2013-03-27 22:03:00,
2013-03-27 18:08:00,51.1,30.4,30.25,NNW,338,4.0,6.9,45,0.00,,,0.00,WUHU216HW,2013-03-27 22:08:00,
2013-03-27 18:13:00,51.3,30.6,30.25,North,0,1.8,6.9,45,0.00,,,0.00,WUHU216HW,2013-03-27 22:13:00,
2013-03-27 18:18:00,50.4,29.2,30.25,NNW,338,2.0,7.6,44,0.00,,,0.00,WUHU216HW,2013-03-27 22:18:00,
2013-03-27 18:23:00,49.5,28.9,30.25,NW,315,2.7,7.6,45,0.00,,,0.00,WUHU216HW,2013-03-27 22:23:00,
2013-03-27 18:28:00,48.6,28.1,30.25,WNW,293,2.7,4.0,45,0.00,,,0.00,WUHU216HW,2013-03-27 22:28:00,
2013-03-27 18:33:00,47.7,27.8,30.26,NNW,338,1.1,4.7,46,0.00,,,0.00,WUHU216HW,2013-03-27 22:33:00,
2013-03-27 18:38:00,47.2,27.3,30.25,North,0,1.8,6.0,46,0.00,,,0.00,WUHU216HW,2013-03-27 22:38:00,
2013-03-27 18:43:00,46.6,26.8,30.25,NNE,23,3.6,6.0,46,0.00,,,0.00,WUHU216HW,2013-03-27 22:43:00,
2013-03-27 18:48:00,46.1,27.4,30.25,NNW,338,2.2,5.6,48,0.00,,,0.00,WUHU216HW,2013-03-27 22:48:00,
2013-03-27 18:53:00,46.1,27.4,30.25,NW,315,2.5,5.6,48,0.00,,,0.00,WUHU216HW,2013-03-27 22:53:00,
2013-03-27 18:58:00,45.4,26.7,30.25,North,0,3.1,6.7,48,0.00,,,0.00,WUHU216HW,2013-03-27 22:58:00,
2013-03-27 19:03:00,44.8,26.8,30.25,North,0,2.9,6.7,49,0.00,,,0.00,WUHU216HW,2013-03-27 23:03:00,
2013-03-27 19:08:00,44.6,26.6,30.25,NNW,338,3.8,6.0,49,0.00,,,0.00,WUHU216HW,2013-03-27 23:08:00,
2013-03-27 19:13:00,44.6,27.2,30.25,NNW,338,1.1,6.0,50,0.00,,,0.00,WUHU216HW,2013-03-27 23:13:00,
2013-03-27 19:18:00,44.3,26.8,30.25,North,0,1.1,5.6,50,0.00,,,0.00,WUHU216HW,2013-03-27 23:18:00,
2013-03-27 19:23:00,43.9,26.6,30.25,NNW,338,1.1,3.8,50,0.00,,,0.00,WUHU216HW,2013-03-27 23:23:00,
2013-03-27 19:28:00,43.6,26.6,30.25,North,0,6.3,6.3,51,0.00,,,0.00,WUHU216HW,2013-03-27 23:28:00,
2013-03-27 19:33:00,42.8,26.0,30.25,NE,45,2.5,6.3,51,0.00,,,0.00,WUHU216HW,2013-03-27 23:33:00,
2013-03-27 19:38:00,42.5,25.7,30.25,NNE,23,0.4,6.3,51,0.00,,,0.00,WUHU216HW,2013-03-27 23:38:00,
2013-03-27 19:43:00,42.1,25.3,30.25,NW,315,1.3,3.4,51,0.00,,,0.00,WUHU216HW,2013-03-27 23:43:00,
2013-03-27 19:48:00,41.8,24.9,30.25,NNW,338,0.7,3.4,51,0.00,,,0.00,WUHU216HW,2013-03-27 23:48:00,
2013-03-27 19:53:00,41.6,25.2,30.25,NNE,23,1.3,2.0,52,0.00,,,0.00,WUHU216HW,2013-03-27 23:53:00,
2013-03-27 19:58:00,41.4,25.0,30.25,North,0,0.9,2.0,52,0.00,,,0.00,WUHU216HW,2013-03-27 23:58:00,
2013-03-27 20:03:00,41.0,24.7,30.25,NNE,23,1.6,2.5,52,0.00,,,0.00,WUHU216HW,2013-03-28 00:03:00,
2013-03-27 20:08:00,40.7,24.8,30.25,NNE,23,2.7,2.9,53,0.00,,,0.00,WUHU216HW,2013-03-28 00:08:00,
2013-03-27 20:13:00,40.5,24.6,30.25,North,0,0.2,2.9,53,0.00,,,0.00,WUHU216HW,2013-03-28 00:13:00,
2013-03-27 20:18:00,40.3,24.8,30.25,NNE,23,0.7,2.7,54,0.00,,,0.00,WUHU216HW,2013-03-28 00:18:00,
2013-03-27 20:23:00,40.1,24.8,30.25,NNE,23,0.7,1.8,54,0.00,,,0.00,WUHU216HW,2013-03-28 00:23:00,
2013-03-27 20:28:00,40.0,25.0,30.25,NNE,23,2.2,2.2,55,0.00,,,0.00,WUHU216HW,2013-03-28 00:28:00,
2013-03-27 20:33:00,40.0,25.0,30.25,NNE,23,1.1,2.2,55,0.00,,,0.00,WUHU216HW,2013-03-28 00:33:00,
2013-03-27 20:38:00,39.8,24.9,30.25,NNE,23,0.0,1.6,55,0.00,,,0.00,WUHU216HW,2013-03-28 00:38:00,
2013-03-27 20:43:00,39.4,24.9,30.26,NNE,23,0.9,1.8,56,0.00,,,0.00,WUHU216HW,2013-03-28 00:43:00,
2013-03-27 20:48:00,39.2,24.8,30.26,NNE,23,0.2,1.8,56,0.00,,,0.00,WUHU216HW,2013-03-28 00:48:00,
2013-03-27 20:53:00,39.1,24.6,30.26,NNE,23,1.1,1.8,56,0.00,,,0.00,WUHU216HW,2013-03-28 00:53:00,
2013-03-27 20:58:00,38.9,24.8,30.26,North,0,1.6,1.6,57,0.00,,,0.00,WUHU216HW,2013-03-28 00:58:00,
2013-03-27 21:03:00,38.7,24.7,30.26,NNE,23,0.7,1.6,57,0.00,,,0.00,WUHU216HW,2013-03-28 01:03:00,
2013-03-27 21:08:00,38.5,24.5,30.26,NNE,23,0.2,1.6,57,0.00,,,0.00,WUHU216HW,2013-03-28 01:08:00,
2013-03-27 21:13:00,38.5,24.9,30.26,NNE,23,0.2,1.1,58,0.00,,,0.00,WUHU216HW,2013-03-28 01:13:00,
2013-03-27 21:18:00,38.3,24.8,30.26,NNE,23,0.4,1.1,58,0.00,,,0.00,WUHU216HW,2013-03-28 01:18:00,
2013-03-27 21:23:00,38.2,24.7,30.26,NNE,23,0.4,0.7,58,0.00,,,0.00,WUHU216HW,2013-03-28 01:23:00,
2013-03-27 21:28:00,38.0,24.5,30.26,NNE,23,0.0,0.7,58,0.00,,,0.00,WUHU216HW,2013-03-28 01:28:00,
2013-03-27 21:33:00,37.8,24.8,30.26,NNE,23,0.0,0.2,59,0.00,,,0.00,WUHU216HW,2013-03-28 01:33:00,
2013-03-27 21:38:00,37.8,24.8,30.26,NNE,23,0.0,0.0,59,0.00,,,0.00,WUHU216HW,2013-03-28 01:38:00,
2013-03-27 21:43:00,37.4,24.4,30.27,NNE,23,0.0,0.0,59,0.00,,,0.00,WUHU216HW,2013-03-28 01:43:00,
2013-03-27 21:48:00,37.4,24.4,30.27,NNE,23,0.0,0.0,59,0.00,,,0.00,WUHU216HW,2013-03-28 01:48:00,
2013-03-27 21:53:00,37.3,24.7,30.27,NNE,23,0.0,0.0,60,0.00,,,0.00,WUHU216HW,2013-03-28 01:53:00,
2013-03-27 21:58:00,37.1,24.5,30.27,NNE,23,0.0,0.0,60,0.00,,,0.00,WUHU216HW,2013-03-28 01:58:00,
2013-03-27 22:03:00,37.1,24.5,30.27,NNE,23,0.0,0.0,60,0.00,,,0.00,WUHU216HW,2013-03-28 02:03:00,
2013-03-27 22:08:00,36.9,24.4,30.28,NNE,23,0.0,0.0,60,0.00,,,0.00,WUHU216HW,2013-03-28 02:08:00,
2013-03-27 22:13:00,36.9,24.4,30.28,NNE,23,0.0,0.0,60,0.00,,,0.00,WUHU216HW,2013-03-28 02:13:00,
2013-03-27 22:18:00,36.7,24.2,30.28,NNE,23,0.0,0.0,60,0.00,,,0.00,WUHU216HW,2013-03-28 02:18:00,
2013-03-27 22:23:00,36.7,24.2,30.28,NNE,23,0.0,0.0,60,0.01,,,0.01,WUHU216HW,2013-03-28 02:23:00,
2013-03-27 22:28:00,36.5,24.0,30.28,NNE,23,0.0,0.0,60,0.01,,,0.01,WUHU216HW,2013-03-28 02:28:00,
2013-03-27 22:33:00,36.5,24.0,30.27,NNE,23,0.0,0.0,60,0.01,,,0.01,WUHU216HW,2013-03-28 02:33:00,
2013-03-27 22:38:00,36.4,23.9,30.27,NNE,23,0.0,0.0,60,0.01,,,0.01,WUHU216HW,2013-03-28 02:38:00,
2013-03-27 22:43:00,36.4,24.2,30.28,NNE,23,0.0,0.0,61,0.01,,,0.01,WUHU216HW,2013-03-28 02:43:00,
2013-03-27 22:48:00,36.4,24.2,30.28,East,90,0.4,0.4,61,0.01,,,0.01,WUHU216HW,2013-03-28 02:48:00,
2013-03-27 22:53:00,36.2,24.0,30.28,East,90,0.0,0.4,61,0.01,,,0.01,WUHU216HW,2013-03-28 02:53:00,
2013-03-27 22:58:00,36.0,24.0,30.28,ESE,113,0.0,0.4,61,0.01,,,0.01,WUHU216HW,2013-03-28 02:58:00,
2013-03-27 23:03:00,35.8,23.8,30.27,ESE,113,1.1,1.1,61,0.01,,,0.01,WUHU216HW,2013-03-28 03:03:00,
2013-03-27 23:08:00,35.6,23.6,30.28,ESE,113,1.3,1.8,61,0.01,,,0.01,WUHU216HW,2013-03-28 03:08:00,
2013-03-27 23:13:00,35.5,23.4,30.28,East,90,1.1,1.8,61,0.01,,,0.01,WUHU216HW,2013-03-28 03:13:00,
2013-03-27 23:18:00,35.3,23.2,30.28,ESE,113,1.1,1.6,61,0.01,,,0.01,WUHU216HW,2013-03-28 03:18:00,
2013-03-27 23:23:00,35.1,23.0,30.28,East,90,0.9,1.6,61,0.00,,,0.01,WUHU216HW,2013-03-28 03:23:00,
2013-03-27 23:28:00,35.1,23.4,30.28,East,90,0.9,1.6,62,0.00,,,0.01,WUHU216HW,2013-03-28 03:28:00,
2013-03-27 23:33:00,34.9,23.2,30.28,East,90,1.1,1.6,62,0.00,,,0.01,WUHU216HW,2013-03-28 03:33:00,
2013-03-27 23:38:00,34.9,23.2,30.28,East,90,1.3,1.3,62,0.00,,,0.01,WUHU216HW,2013-03-28 03:38:00,
2013-03-27 23:43:00,34.9,23.2,30.28,East,90,0.9,1.3,62,0.00,,,0.01,WUHU216HW,2013-03-28 03:43:00,
2013-03-27 23:48:00,34.9,23.2,30.28,ESE,113,0.7,0.9,62,0.00,,,0.01,WUHU216HW,2013-03-28 03:48:00,
2013-03-27 23:53:00,34.7,23.0,30.28,ESE,113,0.7,0.9,62,0.00,,,0.01,WUHU216HW,2013-03-28 03:53:00,
2013-03-27 23:58:00,34.6,22.9,30.28,SE,135,0.0,0.7,62,0.00,,,0.01,WUHU216HW,2013-03-28 03:58:00,